^^
Saratoga-Weather Station Historical Data
Daily Summary for May 26, 2020 Units:  Metric    English   Both
Daily Weekly Monthly Yearly Custom
  High: Low: Average:
Temperature: 4.8 °C 0.8 °C 2.5 °C
Dew Point: 4.7 °C 0.5 °C 2.2 °C
Humidity: 99% 98% 98%
Wind Speed: 4.7km/h 0km/h 0.2km/h
Wind Gust: 6.4km/h - -
Wind- - ESE
Pressure: 1019.6 hPa 1015.9 hPa -
Precipitation: 0.2 mm    
Historical Graphs
 
 
Tabular Data for May 26, 2020
Time Temperature Dew Point Pressure Wind Wind Speed Wind Gust Humidity Rainfall Rate (Hourly) solar
00:00 2.1 °C 1.8 °C 1019.6 hPa Calm     98% 0.0 mm 0 W/m2
00:05 2.1 °C 1.8 °C 1019.6 hPa Calm     98% 0.0 mm 0 W/m2
00:10 2.1 °C 1.8 °C 1019.6 hPa Calm     98% 0.0 mm 0 W/m2
00:15 2.1 °C 1.8 °C 1019.6 hPa Calm     98% 0.0 mm 0 W/m2
00:20 2.1 °C 1.8 °C 1019.6 hPa Calm     98% 0.0 mm 0 W/m2
00:25 2.1 °C 1.8 °C 1019.6 hPa Calm     98% 0.0 mm 0 W/m2
00:30 2.1 °C 1.8 °C 1019.6 hPa Calm     98% 0.0 mm 0 W/m2
00:35 2.1 °C 1.8 °C 1019.6 hPa Calm     98% 0.0 mm 0 W/m2
00:40 1.9 °C 1.6 °C 1019.6 hPa Calm     98% 0.0 mm 0 W/m2
00:45 1.8 °C 1.5 °C 1019.6 hPa SE 4.7 km/h 4.8 km/h 98% 0.0 mm 0 W/m2
00:50 1.8 °C 1.5 °C 1019.6 hPa East 4.7 km/h 4.8 km/h 98% 0.0 mm 0 W/m2
00:55 1.7 °C 1.4 °C 1019.6 hPa ESE 1.4 km/h 1.6 km/h 98% 0.0 mm 0 W/m2
01:00 1.7 °C 1.4 °C 1019.6 hPa Calm     98% 0.0 mm 0 W/m2
01:05 1.7 °C 1.4 °C 1019.6 hPa Calm   4.8 km/h 98% 0.0 mm 0 W/m2
01:10 1.6 °C 1.3 °C 1019.6 hPa Calm     98% 0.0 mm 0 W/m2
01:15 1.6 °C 1.3 °C 1019.6 hPa Calm   4.8 km/h 98% 0.0 mm 0 W/m2
01:20 1.6 °C 1.3 °C 1019.6 hPa ESE 3.2 km/h 4.8 km/h 98% 0.0 mm 0 W/m2
01:25 1.5 °C 1.2 °C 1019.6 hPa Calm     98% 0.0 mm 0 W/m2
01:30 1.5 °C 1.2 °C 1019.6 hPa Calm     98% 0.0 mm 0 W/m2
01:35 1.6 °C 1.3 °C 1019.6 hPa Calm     98% 0.0 mm 0 W/m2
01:40 1.6 °C 1.3 °C 1019.6 hPa Calm     98% 0.0 mm 0 W/m2
01:45 1.6 °C 1.3 °C 1019.3 hPa Calm     98% 0.0 mm 0 W/m2
01:50 1.6 °C 1.3 °C 1019.3 hPa Calm     98% 0.0 mm 0 W/m2
01:55 1.6 °C 1.3 °C 1019.3 hPa Calm     98% 0.0 mm 0 W/m2
02:00 1.5 °C 1.2 °C 1019.3 hPa Calm     98% 0.0 mm 0 W/m2
02:05 1.5 °C 1.2 °C 1019.3 hPa Calm   3.2 km/h 98% 0.0 mm 0 W/m2
02:10 1.5 °C 1.2 °C 1019.3 hPa Calm     98% 0.0 mm 0 W/m2
02:15 1.5 °C 1.2 °C 1019.3 hPa Calm   4.8 km/h 98% 0.0 mm 0 W/m2
02:20 1.5 °C 1.2 °C 1019.3 hPa Calm     98% 0.0 mm 0 W/m2
02:25 1.4 °C 1.1 °C 1019.3 hPa Calm   3.2 km/h 98% 0.0 mm 0 W/m2
02:30 1.4 °C 1.1 °C 1019.3 hPa Calm     98% 0.0 mm 0 W/m2
02:35 1.4 °C 1.1 °C 1019.3 hPa Calm   3.2 km/h 98% 0.0 mm 0 W/m2
02:40 1.4 °C 1.1 °C 1019.3 hPa Calm     98% 0.0 mm 0 W/m2
02:45 1.4 °C 1.1 °C 1019.0 hPa Calm     98% 0.0 mm 0 W/m2
02:50 1.5 °C 1.2 °C 1019.0 hPa Calm     98% 0.0 mm 0 W/m2
02:55 1.5 °C 1.2 °C 1019.0 hPa Calm   1.6 km/h 98% 0.0 mm 0 W/m2
03:00 1.4 °C 1.1 °C 1019.0 hPa ESE 3.2 km/h 4.8 km/h 98% 0.0 mm 0 W/m2
03:05 1.4 °C 1.1 °C 1019.0 hPa Calm     98% 0.0 mm 0 W/m2
03:10 1.4 °C 1.1 °C 1019.0 hPa Calm     98% 0.0 mm 0 W/m2
03:15 1.4 °C 1.1 °C 1019.0 hPa Calm   3.2 km/h 98% 0.0 mm 0 W/m2
03:20 1.4 °C 1.1 °C 1019.0 hPa Calm   1.6 km/h 98% 0.0 mm 0 W/m2
03:25 1.4 °C 1.1 °C 1019.0 hPa Calm     98% 0.0 mm 0 W/m2
03:30 1.4 °C 1.1 °C 1019.0 hPa Calm     98% 0.0 mm 0 W/m2
03:35 1.3 °C 1 °C 1019.0 hPa Calm     98% 0.0 mm 0 W/m2
03:40 1.3 °C 1 °C 1019.0 hPa Calm     98% 0.0 mm 0 W/m2
03:45 1.3 °C 1 °C 1018.6 hPa Calm     98% 0.0 mm 0 W/m2
03:51 1.3 °C 1 °C 1018.6 hPa Calm     98% 0.0 mm 0 W/m2
03:56 1.3 °C 1 °C 1018.6 hPa Calm     98% 0.2 mm 0 W/m2
04:01 1.3 °C 1 °C 1018.6 hPa Calm     98% 0.2 mm 0 W/m2
04:06 1.3 °C 1 °C 1018.6 hPa Calm     98% 0.2 mm 0 W/m2
04:11 1.3 °C 1 °C 1018.6 hPa Calm     98% 0.2 mm 0 W/m2
04:16 1.3 °C 1 °C 1018.6 hPa Calm     98% 0.2 mm 0 W/m2
04:21 1.3 °C 1 °C 1018.6 hPa Calm     98% 0.2 mm 0 W/m2
04:26 1.3 °C 1 °C 1018.6 hPa Calm     98% 0.2 mm 0 W/m2
04:31 1.3 °C 1 °C 1018.6 hPa Calm     98% 0.2 mm 0 W/m2
04:36 1.2 °C 0.9 °C 1018.3 hPa Calm     98% 0.2 mm 0 W/m2
04:41 1.2 °C 0.9 °C 1018.3 hPa Calm     98% 0.2 mm 0 W/m2
04:46 1.3 °C 1 °C 1018.3 hPa Calm     98% 0.2 mm 0 W/m2
04:51 1.2 °C 0.9 °C 1018.6 hPa Calm     98% 0.2 mm 0 W/m2
04:56 1.3 °C 1 °C 1018.3 hPa Calm     98% 0.0 mm 0 W/m2
05:01 1.3 °C 1 °C 1018.3 hPa Calm     98% 0.0 mm 0 W/m2
05:06 1.3 °C 1 °C 1018.3 hPa Calm   3.2 km/h 98% 0.0 mm 0 W/m2
05:11 1.3 °C 1 °C 1018.3 hPa East 4.7 km/h 4.8 km/h 98% 0.0 mm 0 W/m2
05:16 1.2 °C 0.9 °C 1018.3 hPa Calm     98% 0.0 mm 0 W/m2
05:21 1.2 °C 0.9 °C 1018.6 hPa Calm   1.6 km/h 98% 0.0 mm 0 W/m2
05:26 1.1 °C 0.8 °C 1018.3 hPa East 1.4 km/h 3.2 km/h 98% 0.0 mm 0 W/m2
05:31 1.1 °C 0.8 °C 1018.3 hPa Calm     98% 0.0 mm 0 W/m2
05:36 1.1 °C 0.8 °C 1018.3 hPa Calm   1.6 km/h 98% 0.0 mm 0 W/m2
05:41 1.1 °C 0.8 °C 1018.3 hPa Calm   1.6 km/h 98% 0.0 mm 0 W/m2
05:46 1.1 °C 0.8 °C 1018.3 hPa Calm     98% 0.0 mm 0 W/m2
05:51 1.1 °C 0.8 °C 1018.3 hPa Calm     98% 0.0 mm 0 W/m2
05:56 1 °C 0.7 °C 1018.3 hPa Calm     98% 0.0 mm 0 W/m2
06:01 1 °C 0.7 °C 1018.3 hPa Calm     98% 0.0 mm 0 W/m2
06:06 1 °C 0.7 °C 1018.3 hPa Calm     98% 0.0 mm 0 W/m2
06:11 0.9 °C 0.6 °C 1018.3 hPa Calm     98% 0.0 mm 0 W/m2
06:16 0.9 °C 0.6 °C 1018.3 hPa Calm     98% 0.0 mm 0 W/m2
06:21 0.9 °C 0.6 °C 1018.3 hPa Calm     98% 0.0 mm 0 W/m2
06:26 0.9 °C 0.6 °C 1018.3 hPa Calm     98% 0.0 mm 0 W/m2
06:31 0.9 °C 0.6 °C 1018.3 hPa Calm     98% 0.0 mm 0 W/m2
06:36 0.9 °C 0.6 °C 1018.3 hPa East 1.4 km/h 3.2 km/h 98% 0.0 mm 0 W/m2
06:41 0.9 °C 0.6 °C 1018.3 hPa Calm   3.2 km/h 98% 0.0 mm 0 W/m2
06:46 0.8 °C 0.5 °C 1018.3 hPa Calm   1.6 km/h 98% 0.0 mm 0 W/m2
06:51 0.8 °C 0.5 °C 1018.3 hPa Calm   3.2 km/h 98% 0.0 mm 0 W/m2
06:56 0.8 °C 0.5 °C 1018.3 hPa Calm   1.6 km/h 98% 0.0 mm 0 W/m2
07:01 0.8 °C 0.5 °C 1018.3 hPa Calm     98% 0.0 mm 0 W/m2
07:06 0.8 °C 0.5 °C 1018.3 hPa Calm   1.6 km/h 98% 0.0 mm 0 W/m2
07:11 0.8 °C 0.5 °C 1018.3 hPa Calm     98% 0.0 mm 0 W/m2
07:16 0.8 °C 0.5 °C 1018.3 hPa Calm     98% 0.0 mm 0 W/m2
07:21 0.8 °C 0.5 °C 1018.3 hPa Calm   1.6 km/h 98% 0.0 mm 0 W/m2
07:26 0.8 °C 0.5 °C 1018.3 hPa Calm     98% 0.0 mm 0 W/m2
07:31 0.8 °C 0.5 °C 1018.6 hPa Calm     98% 0.0 mm 0 W/m2
07:36 0.8 °C 0.5 °C 1018.6 hPa ESE 3.2 km/h 3.2 km/h 98% 0.0 mm 0 W/m2
07:41 0.8 °C 0.5 °C 1018.6 hPa Calm     98% 0.0 mm 0 W/m2
07:46 0.8 °C 0.5 °C 1018.3 hPa Calm     98% 0.0 mm 0 W/m2
07:51 0.9 °C 0.6 °C 1018.3 hPa Calm     98% 0.0 mm 0 W/m2
07:56 0.9 °C 0.6 °C 1018.6 hPa Calm     98% 0.0 mm 0 W/m2
08:01 0.9 °C 0.6 °C 1018.3 hPa Calm     98% 0.0 mm 0 W/m2
08:06 0.9 °C 0.6 °C 1018.3 hPa Calm     98% 0.0 mm 0 W/m2
08:12 0.9 °C 0.6 °C 1018.6 hPa Calm     98% 0.0 mm 0 W/m2
08:17 0.9 °C 0.6 °C 1018.6 hPa Calm     98% 0.0 mm 0 W/m2
08:22 0.9 °C 0.6 °C 1018.6 hPa Calm     98% 0.0 mm 0 W/m2
08:27 0.9 °C 0.6 °C 1018.6 hPa Calm     98% 0.0 mm 0 W/m2
08:32 0.9 °C 0.6 °C 1018.6 hPa Calm     98% 0.0 mm 0 W/m2
08:37 1 °C 0.7 °C 1018.6 hPa Calm     98% 0.0 mm 5 W/m2
08:42 1 °C 0.7 °C 1018.6 hPa Calm     98% 0.0 mm 9 W/m2
08:47 1 °C 0.7 °C 1018.6 hPa Calm     98% 0.0 mm 11 W/m2
08:52 1 °C 0.7 °C 1018.6 hPa Calm     98% 0.0 mm 11 W/m2
08:57 1.1 °C 0.8 °C 1018.6 hPa Calm     98% 0.0 mm 12 W/m2
09:02 1.1 °C 0.8 °C 1019.0 hPa Calm     98% 0.0 mm 11 W/m2
09:07 1.1 °C 0.8 °C 1019.0 hPa Calm     98% 0.0 mm 12 W/m2
09:12 1 °C 0.7 °C 1019.0 hPa Calm     98% 0.0 mm 12 W/m2
09:17 1.1 °C 0.8 °C 1019.0 hPa Calm     98% 0.0 mm 16 W/m2
09:22 1.1 °C 0.8 °C 1018.6 hPa Calm   1.6 km/h 98% 0.0 mm 32 W/m2
09:27 1.1 °C 0.8 °C 1019.0 hPa Calm     98% 0.0 mm 33 W/m2
09:32 1.2 °C 0.9 °C 1018.6 hPa Calm     98% 0.0 mm 37 W/m2
09:37 1.2 °C 0.9 °C 1018.6 hPa Calm     98% 0.0 mm 35 W/m2
09:42 1.2 °C 0.9 °C 1018.6 hPa Calm     98% 0.0 mm 35 W/m2
09:47 1.3 °C 1 °C 1018.6 hPa Calm     98% 0.0 mm 42 W/m2
09:52 1.3 °C 1 °C 1018.6 hPa Calm     98% 0.0 mm 42 W/m2
09:58 1.3 °C 1 °C 1018.6 hPa Calm     98% 0.0 mm 46 W/m2
10:03 1.3 °C 1 °C 1018.6 hPa Calm     98% 0.0 mm 46 W/m2
10:08 1.3 °C 1 °C 1018.6 hPa Calm     98% 0.0 mm 46 W/m2
10:19 1.3 °C 1 °C 1019.0 hPa Calm   3.2 km/h 98% 0.0 mm 53 W/m2
10:24 1.3 °C 1 °C 1018.6 hPa Calm     98% 0.0 mm 56 W/m2
10:29 1.3 °C 1 °C 1019.0 hPa Calm     98% 0.0 mm 62 W/m2
10:34 1.4 °C 1.1 °C 1019.0 hPa Calm   1.6 km/h 98% 0.0 mm 63 W/m2
10:39 1.4 °C 1.1 °C 1019.0 hPa Calm     98% 0.0 mm 60 W/m2
10:44 1.5 °C 1.2 °C 1019.0 hPa Calm   1.6 km/h 98% 0.0 mm 65 W/m2
10:49 1.6 °C 1.3 °C 1019.0 hPa Calm     98% 0.0 mm 65 W/m2
10:54 1.6 °C 1.3 °C 1019.0 hPa ESE 1.4 km/h 4.8 km/h 98% 0.0 mm 65 W/m2
11:00 1.6 °C 1.3 °C 1019.0 hPa Calm   1.6 km/h 98% 0.0 mm 67 W/m2
11:05 1.6 °C 1.3 °C 1019.0 hPa Calm   4.8 km/h 98% 0.0 mm 39 W/m2
11:10 1.7 °C 1.4 °C 1019.0 hPa Calm   1.6 km/h 98% 0.0 mm 100 W/m2
11:15 1.7 °C 1.4 °C 1019.0 hPa SE 1.4 km/h 3.2 km/h 98% 0.0 mm 79 W/m2
11:20 1.8 °C 1.5 °C 1019.0 hPa ESE 1.4 km/h 1.6 km/h 98% 0.0 mm 95 W/m2
11:25 1.8 °C 1.5 °C 1019.3 hPa Calm   1.6 km/h 98% 0.0 mm 72 W/m2
11:30 1.8 °C 1.5 °C 1019.0 hPa Calm     98% 0.0 mm 60 W/m2
11:35 1.8 °C 1.5 °C 1019.0 hPa Calm     98% 0.0 mm 81 W/m2
11:40 1.8 °C 1.5 °C 1019.0 hPa Calm   1.6 km/h 98% 0.0 mm 70 W/m2
11:45 1.9 °C 1.6 °C 1019.0 hPa Calm     98% 0.0 mm 51 W/m2
11:50 1.9 °C 1.6 °C 1019.0 hPa Calm   1.6 km/h 98% 0.0 mm 49 W/m2
11:55 2 °C 1.7 °C 1019.0 hPa ESE 1.4 km/h 1.6 km/h 98% 0.0 mm 56 W/m2
12:00 2.1 °C 1.8 °C 1019.0 hPa Calm   3.2 km/h 98% 0.0 mm 81 W/m2
12:05 2.1 °C 1.8 °C 1018.6 hPa Calm     98% 0.0 mm 86 W/m2
12:10 2.2 °C 1.9 °C 1018.6 hPa Calm     98% 0.0 mm 95 W/m2
12:15 2.2 °C 1.9 °C 1018.6 hPa Calm     98% 0.0 mm 130 W/m2
12:20 2.2 °C 1.9 °C 1018.6 hPa Calm     98% 0.0 mm 142 W/m2
12:25 2.3 °C 2 °C 1018.3 hPa Calm     98% 0.0 mm 114 W/m2
12:30 2.4 °C 2.1 °C 1018.3 hPa Calm   3.2 km/h 98% 0.0 mm 116 W/m2
12:35 2.4 °C 2.1 °C 1018.3 hPa ESE 1.4 km/h 1.6 km/h 98% 0.0 mm 116 W/m2
12:40 2.5 °C 2.2 °C 1018.3 hPa ESE 3.2 km/h 4.8 km/h 98% 0.0 mm 144 W/m2
12:45 2.6 °C 2.3 °C 1018.3 hPa ENE 3.2 km/h 4.8 km/h 98% 0.0 mm 151 W/m2
12:50 2.6 °C 2.3 °C 1018.3 hPa East 1.4 km/h 4.8 km/h 98% 0.0 mm 130 W/m2
12:55 2.7 °C 2.4 °C 1018.0 hPa ESE 3.2 km/h 4.8 km/h 98% 0.0 mm 111 W/m2
13:00 2.7 °C 2.4 °C 1018.0 hPa ESE 3.2 km/h 6.4 km/h 98% 0.0 mm 93 W/m2
13:05 2.7 °C 2.4 °C 1018.0 hPa Calm   1.6 km/h 98% 0.0 mm 102 W/m2
13:10 2.7 °C 2.4 °C 1018.0 hPa Calm   1.6 km/h 98% 0.0 mm 98 W/m2
13:15 2.7 °C 2.4 °C 1018.0 hPa Calm   1.6 km/h 98% 0.0 mm 65 W/m2
13:20 2.8 °C 2.5 °C 1018.0 hPa East 3.2 km/h 3.2 km/h 98% 0.0 mm 58 W/m2
13:25 2.9 °C 2.6 °C 1018.0 hPa Calm     98% 0.0 mm 53 W/m2
13:30 2.9 °C 2.6 °C 1018.0 hPa SE 3.2 km/h 3.2 km/h 98% 0.0 mm 72 W/m2
13:35 2.9 °C 2.6 °C 1018.0 hPa Calm   3.2 km/h 98% 0.0 mm 97 W/m2
13:40 2.9 °C 2.6 °C 1017.6 hPa Calm     98% 0.0 mm 100 W/m2
13:45 3 °C 2.7 °C 1018.0 hPa Calm     98% 0.0 mm 109 W/m2
13:50 3.1 °C 2.8 °C 1017.6 hPa Calm     98% 0.0 mm 97 W/m2
13:55 3.1 °C 2.8 °C 1017.6 hPa Calm   3.2 km/h 98% 0.0 mm 118 W/m2
14:00 3.2 °C 2.9 °C 1017.6 hPa Calm     98% 0.0 mm 86 W/m2
14:05 3.3 °C 3 °C 1017.6 hPa Calm     98% 0.0 mm 65 W/m2
14:10 3.3 °C 3.2 °C 1017.6 hPa Calm   1.6 km/h 99% 0.0 mm 69 W/m2
14:15 3.4 °C 3.3 °C 1017.6 hPa Calm     99% 0.0 mm 63 W/m2
14:20 3.4 °C 3.1 °C 1017.3 hPa Calm     98% 0.0 mm 67 W/m2
14:25 3.5 °C 3.2 °C 1017.3 hPa Calm     98% 0.0 mm 76 W/m2
14:30 3.6 °C 3.3 °C 1017.3 hPa Calm   1.6 km/h 98% 0.0 mm 72 W/m2
14:35 3.7 °C 3.4 °C 1017.3 hPa Calm     98% 0.0 mm 70 W/m2
14:40 3.7 °C 3.6 °C 1017.3 hPa Calm   1.6 km/h 99% 0.0 mm 86 W/m2
14:45 3.8 °C 3.5 °C 1017.3 hPa Calm   3.2 km/h 98% 0.0 mm 105 W/m2
14:50 3.8 °C 3.5 °C 1017.3 hPa Calm   3.2 km/h 98% 0.0 mm 114 W/m2
14:56 3.9 °C 3.6 °C 1017.3 hPa Calm     98% 0.0 mm 90 W/m2
15:01 4 °C 3.7 °C 1016.9 hPa Calm     98% 0.0 mm 90 W/m2
15:06 4.1 °C 4 °C 1016.9 hPa Calm     99% 0.0 mm 93 W/m2
15:11 4.1 °C 4 °C 1016.9 hPa Calm     99% 0.0 mm 113 W/m2
15:16 4.2 °C 3.9 °C 1016.9 hPa Calm     98% 0.0 mm 98 W/m2
15:21 4.3 °C 4.2 °C 1016.9 hPa Calm     99% 0.0 mm 88 W/m2
15:26 4.5 °C 4.2 °C 1016.9 hPa Calm     98% 0.0 mm 84 W/m2
15:31 4.5 °C 4.2 °C 1016.9 hPa Calm     98% 0.0 mm 62 W/m2
15:36 4.6 °C 4.3 °C 1016.9 hPa Calm     98% 0.0 mm 63 W/m2
15:41 4.6 °C 4.5 °C 1016.9 hPa Calm     99% 0.0 mm 58 W/m2
15:46 4.7 °C 4.6 °C 1016.9 hPa Calm     99% 0.0 mm 44 W/m2
15:51 4.7 °C 4.6 °C 1016.9 hPa Calm     99% 0.0 mm 42 W/m2
15:56 4.6 °C 4.5 °C 1016.6 hPa Calm     99% 0.0 mm 40 W/m2
16:01 4.6 °C 4.3 °C 1016.9 hPa Calm     98% 0.0 mm 39 W/m2
16:06 4.4 °C 4.1 °C 1016.9 hPa Calm     98% 0.0 mm 30 W/m2
16:11 4.4 °C 4.1 °C 1016.9 hPa Calm     98% 0.0 mm 35 W/m2
16:16 4.3 °C 4 °C 1016.9 hPa Calm     98% 0.0 mm 33 W/m2
16:21 4.2 °C 3.9 °C 1016.9 hPa Calm     98% 0.0 mm 35 W/m2
16:27 4.2 °C 3.9 °C 1016.9 hPa Calm     98% 0.0 mm 37 W/m2
16:32 4.2 °C 3.9 °C 1016.9 hPa Calm     98% 0.0 mm 42 W/m2
16:37 4.2 °C 3.9 °C 1016.6 hPa Calm     98% 0.0 mm 37 W/m2
16:42 4.3 °C 4 °C 1016.6 hPa Calm     98% 0.0 mm 30 W/m2
16:47 4.3 °C 4 °C 1016.9 hPa Calm     98% 0.0 mm 26 W/m2
16:52 4.3 °C 4 °C 1016.6 hPa Calm     98% 0.0 mm 23 W/m2
16:57 4.4 °C 4.1 °C 1016.6 hPa Calm     98% 0.0 mm 21 W/m2
17:02 4.4 °C 4.1 °C 1016.6 hPa Calm     98% 0.0 mm 14 W/m2
17:07 4.4 °C 4.1 °C 1016.6 hPa Calm     98% 0.0 mm 9 W/m2
17:12 4.4 °C 4.1 °C 1016.9 hPa Calm     98% 0.0 mm 5 W/m2
17:17 4.3 °C 4 °C 1016.6 hPa Calm     98% 0.0 mm 0 W/m2
17:22 4.3 °C 4 °C 1016.9 hPa Calm     98% 0.0 mm 0 W/m2
17:27 4.2 °C 3.9 °C 1016.6 hPa Calm     98% 0.0 mm 0 W/m2
17:32 4.1 °C 3.8 °C 1016.9 hPa Calm     98% 0.0 mm 0 W/m2
17:37 4.1 °C 3.8 °C 1016.9 hPa Calm     98% 0.0 mm 0 W/m2
17:42 4.1 °C 3.8 °C 1016.9 hPa Calm     98% 0.0 mm 0 W/m2
17:47 4.1 °C 3.8 °C 1016.9 hPa Calm     98% 0.0 mm 0 W/m2
17:52 4.1 °C 3.8 °C 1016.9 hPa Calm     98% 0.0 mm 0 W/m2
17:57 4.1 °C 3.8 °C 1016.9 hPa Calm     98% 0.0 mm 0 W/m2
18:02 4.1 °C 3.8 °C 1016.9 hPa Calm     98% 0.0 mm 0 W/m2
18:07 4.1 °C 3.8 °C 1016.9 hPa Calm     98% 0.0 mm 0 W/m2
18:12 4 °C 3.7 °C 1016.9 hPa Calm     98% 0.0 mm 0 W/m2
18:17 3.9 °C 3.6 °C 1016.9 hPa Calm     98% 0.0 mm 0 W/m2
18:22 3.9 °C 3.6 °C 1016.9 hPa Calm     98% 0.0 mm 0 W/m2
18:27 3.8 °C 3.5 °C 1016.9 hPa Calm     98% 0.0 mm 0 W/m2
18:32 3.7 °C 3.4 °C 1016.9 hPa Calm     98% 0.0 mm 0 W/m2
18:37 3.7 °C 3.4 °C 1016.9 hPa Calm     98% 0.0 mm 0 W/m2
18:42 3.6 °C 3.3 °C 1016.9 hPa Calm     98% 0.0 mm 0 W/m2
18:47 3.6 °C 3.3 °C 1016.6 hPa Calm     98% 0.0 mm 0 W/m2
18:52 3.5 °C 3.2 °C 1016.6 hPa Calm     98% 0.0 mm 0 W/m2
18:57 3.4 °C 3.1 °C 1016.6 hPa Calm     98% 0.0 mm 0 W/m2
19:02 3.4 °C 3.1 °C 1016.6 hPa Calm     98% 0.0 mm 0 W/m2
19:07 3.4 °C 3.1 °C 1016.6 hPa Calm     98% 0.0 mm 0 W/m2
19:13 3.5 °C 3.2 °C 1016.6 hPa Calm     98% 0.0 mm 0 W/m2
19:18 3.5 °C 3.2 °C 1016.6 hPa Calm     98% 0.0 mm 0 W/m2
19:23 3.4 °C 3.1 °C 1016.6 hPa Calm     98% 0.0 mm 0 W/m2
19:28 3.4 °C 3.1 °C 1016.9 hPa Calm     98% 0.0 mm 0 W/m2
19:33 3.4 °C 3.1 °C 1016.6 hPa Calm     98% 0.0 mm 0 W/m2
19:38 3.3 °C 3 °C 1016.6 hPa Calm     98% 0.0 mm 0 W/m2
19:43 3.3 °C 3 °C 1016.9 hPa Calm     98% 0.0 mm 0 W/m2
19:48 3.2 °C 2.9 °C 1016.9 hPa Calm     98% 0.0 mm 0 W/m2
19:53 3.2 °C 2.9 °C 1016.9 hPa Calm     98% 0.0 mm 0 W/m2
19:58 3.1 °C 2.8 °C 1016.9 hPa Calm     98% 0.0 mm 0 W/m2
20:03 3.1 °C 2.8 °C 1016.9 hPa Calm     98% 0.0 mm 0 W/m2
20:08 3.1 °C 2.8 °C 1016.9 hPa Calm     98% 0.0 mm 0 W/m2
20:13 3.1 °C 2.8 °C 1016.9 hPa Calm     98% 0.0 mm 0 W/m2
20:18 3.2 °C 2.9 °C 1016.9 hPa Calm     98% 0.0 mm 0 W/m2
20:23 3.2 °C 2.9 °C 1016.9 hPa Calm     98% 0.0 mm 0 W/m2
20:28 3.2 °C 2.9 °C 1016.9 hPa Calm     98% 0.0 mm 0 W/m2
20:33 3.2 °C 2.9 °C 1016.9 hPa Calm     98% 0.0 mm 0 W/m2
20:38 3.2 °C 2.9 °C 1016.9 hPa Calm     98% 0.0 mm 0 W/m2
20:43 3.2 °C 2.9 °C 1016.6 hPa Calm     98% 0.0 mm 0 W/m2
20:48 3.2 °C 2.9 °C 1016.6 hPa Calm     98% 0.0 mm 0 W/m2
20:53 3.3 °C 3 °C 1016.6 hPa Calm     98% 0.0 mm 0 W/m2
20:58 3.2 °C 2.9 °C 1016.6 hPa Calm     98% 0.0 mm 0 W/m2
21:03 3.1 °C 2.8 °C 1016.6 hPa Calm     98% 0.0 mm 0 W/m2
21:08 3.1 °C 2.8 °C 1016.6 hPa Calm     98% 0.0 mm 0 W/m2
21:13 2.9 °C 2.6 °C 1016.6 hPa Calm     98% 0.0 mm 0 W/m2
21:18 2.8 °C 2.5 °C 1016.6 hPa Calm     98% 0.0 mm 0 W/m2
21:23 2.8 °C 2.5 °C 1016.6 hPa Calm     98% 0.0 mm 0 W/m2
21:28 3 °C 2.7 °C 1016.6 hPa Calm     98% 0.0 mm 0 W/m2
21:33 3.1 °C 2.8 °C 1016.6 hPa Calm   1.6 km/h 98% 0.0 mm 0 W/m2
21:38 3.1 °C 2.8 °C 1016.6 hPa Calm     98% 0.0 mm 0 W/m2
21:43 3.2 °C 2.9 °C 1016.6 hPa Calm     98% 0.0 mm 0 W/m2
21:48 3.2 °C 2.9 °C 1016.6 hPa Calm     98% 0.0 mm 0 W/m2
21:53 3.2 °C 2.9 °C 1016.6 hPa Calm     98% 0.0 mm 0 W/m2
21:58 3.2 °C 2.9 °C 1016.6 hPa Calm     98% 0.0 mm 0 W/m2
22:03 3.2 °C 2.9 °C 1016.6 hPa Calm     98% 0.0 mm 0 W/m2
22:08 3.2 °C 2.9 °C 1016.6 hPa Calm     98% 0.0 mm 0 W/m2
22:13 3.2 °C 2.9 °C 1016.6 hPa Calm     98% 0.0 mm 0 W/m2
22:18 3.3 °C 3 °C 1016.6 hPa Calm     98% 0.0 mm 0 W/m2
22:23 3.3 °C 3 °C 1016.3 hPa Calm     98% 0.0 mm 0 W/m2
22:28 3.4 °C 3.1 °C 1016.3 hPa Calm     98% 0.0 mm 0 W/m2
22:33 3.4 °C 3.1 °C 1016.3 hPa Calm     98% 0.0 mm 0 W/m2
22:38 3.6 °C 3.3 °C 1016.3 hPa Calm     98% 0.0 mm 0 W/m2
22:43 3.8 °C 3.5 °C 1016.3 hPa Calm     98% 0.0 mm 0 W/m2
22:48 3.9 °C 3.6 °C 1016.3 hPa Calm   1.6 km/h 98% 0.0 mm 0 W/m2
22:53 4.3 °C 4.2 °C 1016.3 hPa Calm     99% 0.0 mm 0 W/m2
22:59 4.4 °C 4.3 °C 1016.3 hPa Calm     99% 0.0 mm 0 W/m2
23:04 4.6 °C 4.3 °C 1016.3 hPa Calm     98% 0.0 mm 0 W/m2
23:09 4.8 °C 4.7 °C 1015.9 hPa Calm     99% 0.0 mm 0 W/m2
23:14 4.7 °C 4.6 °C 1016.3 hPa Calm   1.6 km/h 99% 0.0 mm 0 W/m2
23:19 4.6 °C 4.5 °C 1016.3 hPa Calm     99% 0.0 mm 0 W/m2
23:24 4.6 °C 4.5 °C 1016.3 hPa Calm   1.6 km/h 99% 0.0 mm 0 W/m2
23:29 4.6 °C 4.5 °C 1016.3 hPa Calm     99% 0.0 mm 0 W/m2
23:34 4.6 °C 4.5 °C 1016.3 hPa Calm     99% 0.0 mm 0 W/m2
23:39 4.7 °C 4.6 °C 1016.3 hPa Calm     99% 0.0 mm 0 W/m2
23:44 4.7 °C 4.6 °C 1016.3 hPa Calm     99% 0.0 mm 0 W/m2
23:49 4.8 °C 4.5 °C 1016.3 hPa Calm     98% 0.0 mm 0 W/m2
23:54 4.8 °C 4.5 °C 1016.3 hPa Calm     98% 0.0 mm 0 W/m2
23:59 4.8 °C 4.5 °C 1016.3 hPa Calm     98% 0.0 mm 0 W/m2
Juneau County Weather
Compliments of Weather Underground - 4 mb